Time;durP1;ratioP1;P1;durP2;ratioP2;P2;SDS_P1;SDS_P2;PMS_P1;PMS_P2;Temp;Humidity;BMP_temperature;BMP_pressure;BME280_temperature;BME280_humidity;BME280_pressure;Samples;Min_cycle;Max_cycle;Signal;HPM_P1;HPM_P2
2022/08/30 00:01:25;;;;;;;6.15;4.13;;;14.00;99.90;;;;;;5041901;28;20067;-72
2022/08/30 00:03:53;;;;;;;5.95;3.60;;;13.90;99.90;;;;;;5038672;28;20128;-71
2022/08/30 00:06:20;;;;;;;5.60;3.75;;;13.80;99.90;;;;;;5028701;28;20049;-71
2022/08/30 00:08:47;;;;;;;8.50;4.00;;;13.80;99.90;;;;;;5036038;28;20152;-70
2022/08/30 00:11:20;;;;;;;4.30;3.45;;;13.70;99.90;;;;;;5041823;28;20092;-71
2022/08/30 00:13:48;;;;;;;6.90;3.22;;;13.70;99.90;;;;;;5037044;28;20081;-72
2022/08/30 00:16:15;;;;;;;5.50;2.88;;;13.60;99.90;;;;;;5033631;28;20515;-72
2022/08/30 00:18:42;;;;;;;4.20;3.20;;;13.70;99.90;;;;;;5034047;28;20509;-71
2022/08/30 00:21:09;;;;;;;3.95;2.65;;;13.70;99.90;;;;;;5039242;28;20347;-71
2022/08/30 00:23:35;;;;;;;4.63;2.97;;;13.70;99.90;;;;;;5038731;28;20121;-72
2022/08/30 00:26:01;;;;;;;5.70;3.38;;;13.70;99.90;;;;;;5041089;28;20095;-71
2022/08/30 00:28:27;;;;;;;4.35;2.83;;;13.60;99.90;;;;;;5024691;28;20161;-71
2022/08/30 00:30:53;;;;;;;4.57;2.75;;;13.60;99.90;;;;;;5041324;28;20622;-71
2022/08/30 00:33:20;;;;;;;3.17;2.38;;;13.50;99.90;;;;;;5043463;28;20053;-71
2022/08/30 00:35:46;;;;;;;5.35;2.97;;;13.60;99.90;;;;;;5042514;28;20418;-71
2022/08/30 00:38:13;;;;;;;5.82;2.90;;;13.50;99.90;;;;;;5028613;28;20049;-71
2022/08/30 00:40:40;;;;;;;4.03;2.80;;;13.60;99.90;;;;;;5040919;28;20040;-71
2022/08/30 00:43:10;;;;;;;4.50;2.78;;;13.60;99.90;;;;;;5039103;28;20057;-71
2022/08/30 00:45:37;;;;;;;3.20;2.65;;;13.50;99.90;;;;;;5042637;28;20160;-71
2022/08/30 00:48:04;;;;;;;2.70;2.35;;;13.50;99.90;;;;;;5021121;28;20041;-71
2022/08/30 00:50:35;;;;;;;6.05;2.90;;;13.50;99.90;;;;;;5040988;28;20860;-71
2022/08/30 00:53:04;;;;;;;5.93;3.00;;;13.50;99.90;;;;;;5040659;28;20045;-71
2022/08/30 00:55:32;;;;;;;4.07;2.80;;;13.50;99.90;;;;;;5042966;28;20496;-72
2022/08/30 00:58:01;;;;;;;5.68;3.20;;;13.50;99.90;;;;;;5029548;28;20139;-71
2022/08/30 01:00:27;;;;;;;4.75;2.97;;;13.50;99.90;;;;;;5040479;28;20059;-70
2022/08/30 01:02:53;;;;;;;6.57;3.03;;;13.50;99.90;;;;;;5037812;28;20050;-72
2022/08/30 01:05:20;;;;;;;5.35;3.00;;;13.60;99.90;;;;;;5040754;28;20053;-72
2022/08/30 01:07:45;;;;;;;5.32;3.15;;;13.50;99.90;;;;;;5025832;28;20051;-71
2022/08/30 01:10:13;;;;;;;6.63;3.17;;;13.50;99.90;;;;;;5040375;28;20412;-70
2022/08/30 01:12:41;;;;;;;3.90;3.00;;;13.50;99.90;;;;;;5039613;28;20049;-71
2022/08/30 01:15:09;;;;;;;7.82;3.10;;;13.50;99.90;;;;;;5041284;28;20056;-71
2022/08/30 01:17:36;;;;;;;5.65;3.00;;;13.50;99.90;;;;;;5023267;28;20052;-70
2022/08/30 01:20:08;;;;;;;4.80;3.17;;;13.50;99.90;;;;;;5040547;28;20120;-71
2022/08/30 01:22:44;;;;;;;5.22;3.40;;;13.50;99.90;;;;;;5037276;28;20110;-71
2022/08/30 01:25:11;;;;;;;4.97;2.83;;;13.50;99.90;;;;;;5035012;28;20492;-71
2022/08/30 01:27:43;;;;;;;6.25;3.30;;;13.50;99.90;;;;;;5029516;28;20336;-72
2022/08/30 01:30:09;;;;;;;4.85;3.10;;;13.60;99.90;;;;;;5039218;28;20136;-72
2022/08/30 01:32:41;;;;;;;5.85;2.92;;;13.50;99.90;;;;;;5040461;28;20400;-71
2022/08/30 01:35:08;;;;;;;3.55;2.78;;;13.60;99.90;;;;;;5055700;28;20061;-72
2022/08/30 01:37:36;;;;;;;3.72;3.10;;;13.50;99.90;;;;;;5026859;28;20068;-71
2022/08/30 01:40:03;;;;;;;4.63;2.70;;;13.60;99.90;;;;;;5040041;28;20037;-71
2022/08/30 01:42:28;;;;;;;6.53;2.92;;;13.60;99.90;;;;;;5042603;28;20123;-71
2022/08/30 01:44:54;;;;;;;5.57;3.05;;;13.60;99.90;;;;;;5043376;28;20097;-72
2022/08/30 01:47:20;;;;;;;4.28;2.67;;;13.60;99.90;;;;;;5025412;28;20396;-71
2022/08/30 01:49:46;;;;;;;4.90;2.83;;;13.60;99.90;;;;;;5041018;28;20162;-71
2022/08/30 01:52:15;;;;;;;3.35;2.85;;;13.60;99.90;;;;;;5040308;28;20415;-71
2022/08/30 01:54:43;;;;;;;4.35;3.35;;;13.60;99.90;;;;;;5039336;28;20049;-72
2022/08/30 01:57:10;;;;;;;4.30;3.00;;;13.60;99.90;;;;;;5019658;28;20056;-70
2022/08/30 01:59:37;;;;;;;6.15;3.58;;;13.60;99.90;;;;;;5043686;28;20044;-72
2022/08/30 02:02:04;;;;;;;3.28;2.80;;;13.60;99.90;;;;;;5038428;28;20534;-70
2022/08/30 02:04:30;;;;;;;6.40;3.05;;;13.60;99.90;;;;;;5042485;28;20049;-72
2022/08/30 02:06:56;;;;;;;5.15;3.00;;;13.60;99.90;;;;;;5026417;28;20044;-72
2022/08/30 02:09:21;;;;;;;5.22;2.92;;;13.60;99.90;;;;;;5037955;28;20107;-72
2022/08/30 02:11:47;;;;;;;3.20;2.78;;;13.60;99.90;;;;;;5040771;28;20072;-72
2022/08/30 02:14:13;;;;;;;4.03;2.60;;;13.60;99.90;;;;;;5020562;28;20068;-72
2022/08/30 02:16:39;;;;;;;4.15;2.15;;;13.70;99.90;;;;;;5030349;28;20098;-72
2022/08/30 02:19:06;;;;;;;4.22;2.53;;;13.60;99.90;;;;;;5042853;28;20555;-72
2022/08/30 02:21:31;;;;;;;3.63;2.80;;;13.60;99.90;;;;;;5042274;28;20052;-72
2022/08/30 02:23:57;;;;;;;3.17;2.53;;;13.60;99.90;;;;;;5040967;28;20488;-72
2022/08/30 02:26:23;;;;;;;2.60;2.40;;;13.50;99.90;;;;;;5032209;28;20404;-72
2022/08/30 02:28:49;;;;;;;5.13;2.63;;;13.50;99.90;;;;;;5039595;28;20049;-72
2022/08/30 02:31:16;;;;;;;4.25;3.00;;;13.50;99.90;;;;;;5043297;28;20100;-72
2022/08/30 02:33:42;;;;;;;4.45;2.45;;;13.50;99.90;;;;;;5039018;28;20479;-72
2022/08/30 02:36:08;;;;;;;2.80;2.53;;;13.50;99.90;;;;;;5033033;28;20048;-73
2022/08/30 02:38:34;;;;;;;4.47;2.70;;;13.50;99.90;;;;;;5035714;28;20052;-72
2022/08/30 02:41:00;;;;;;;3.58;2.88;;;13.50;99.90;;;;;;5043939;28;20044;-72
2022/08/30 02:43:26;;;;;;;3.80;2.88;;;13.50;99.90;;;;;;5041871;28;20063;-72
2022/08/30 02:45:52;;;;;;;4.10;3.03;;;13.50;99.90;;;;;;5044094;28;20114;-72
2022/08/30 02:48:18;;;;;;;6.40;3.10;;;13.50;99.90;;;;;;5023582;28;20443;-72
2022/08/30 02:50:47;;;;;;;5.55;3.03;;;13.50;99.90;;;;;;5042328;28;20175;-72
2022/08/30 02:53:13;;;;;;;4.75;3.03;;;13.50;99.90;;;;;;5036825;28;20057;-72
2022/08/30 02:55:38;;;;;;;5.65;3.72;;;13.60;99.90;;;;;;5043142;28;20044;-72
2022/08/30 02:58:05;;;;;;;4.82;3.17;;;13.60;99.90;;;;;;5026458;28;20500;-72
2022/08/30 03:00:31;;;;;;;5.57;3.38;;;13.60;99.90;;;;;;5045560;28;20104;-72
2022/08/30 03:02:57;;;;;;;5.68;4.18;;;13.50;99.90;;;;;;5041193;28;20056;-72
2022/08/30 03:05:23;;;;;;;4.93;3.83;;;13.50;99.90;;;;;;5043484;28;20666;-72
2022/08/30 03:07:49;;;;;;;4.97;3.53;;;13.50;99.90;;;;;;5025106;28;20037;-72
2022/08/30 03:10:16;;;;;;;8.45;4.05;;;13.50;99.90;;;;;;5043896;28;20370;-72
2022/08/30 03:12:42;;;;;;;5.70;3.75;;;13.50;99.90;;;;;;5042736;28;20111;-72
2022/08/30 03:15:11;;;;;;;10.18;4.22;;;13.50;99.90;;;;;;5038986;28;20432;-72
2022/08/30 03:17:38;;;;;;;4.78;3.45;;;13.50;99.90;;;;;;5027275;28;20497;-71
2022/08/30 03:20:05;;;;;;;6.32;3.55;;;13.50;99.90;;;;;;5042277;28;20060;-72
2022/08/30 03:22:31;;;;;;;4.47;3.20;;;13.50;99.90;;;;;;5040954;28;20045;-71
2022/08/30 03:24:58;;;;;;;4.93;3.88;;;13.50;99.90;;;;;;5041124;28;20436;-72
2022/08/30 03:27:25;;;;;;;4.72;4.00;;;13.40;99.90;;;;;;5025321;28;20053;-72
2022/08/30 03:29:51;;;;;;;9.52;4.30;;;13.40;99.90;;;;;;5042508;28;20048;-72
2022/08/30 03:32:17;;;;;;;6.63;4.15;;;13.30;99.90;;;;;;5039093;28;20103;-71
2022/08/30 03:34:42;;;;;;;7.60;4.15;;;13.30;99.90;;;;;;5038643;28;20044;-72
2022/08/30 03:37:08;;;;;;;5.47;4.15;;;13.30;99.90;;;;;;5025805;28;20057;-72
2022/08/30 03:39:34;;;;;;;9.13;4.70;;;13.30;99.90;;;;;;5044396;28;20029;-71
2022/08/30 03:42:00;;;;;;;7.93;4.72;;;13.20;99.90;;;;;;5041555;28;20128;-72
2022/08/30 03:44:26;;;;;;;10.80;4.47;;;13.30;99.90;;;;;;5039608;28;20127;-72
2022/08/30 03:46:51;;;;;;;8.23;4.97;;;13.20;99.90;;;;;;5022104;28;20046;-72
2022/08/30 03:49:19;;;;;;;6.35;4.97;;;13.20;99.90;;;;;;5042283;28;20041;-71
2022/08/30 03:51:46;;;;;;;9.95;5.43;;;13.20;99.90;;;;;;5041906;28;20055;-72
2022/08/30 03:54:12;;;;;;;9.40;6.07;;;13.20;99.90;;;;;;5037839;28;20037;-72
2022/08/30 03:56:38;;;;;;;7.78;5.93;;;13.10;99.90;;;;;;5024711;28;20568;-72
2022/08/30 03:59:04;;;;;;;8.75;5.88;;;13.00;99.90;;;;;;5038753;28;20147;-72
2022/08/30 04:01:30;;;;;;;7.72;5.72;;;13.00;99.90;;;;;;5039402;28;20137;-72
2022/08/30 04:03:56;;;;;;;14.02;6.60;;;12.90;99.90;;;;;;5042158;28;20128;-72
2022/08/30 04:06:22;;;;;;;10.25;5.53;;;12.80;99.90;;;;;;5033967;28;20053;-72
2022/08/30 04:08:47;;;;;;;10.85;6.32;;;12.80;99.90;;;;;;5038194;28;20048;-71
2022/08/30 04:11:15;;;;;;;6.82;5.32;;;12.80;99.90;;;;;;5042664;28;20055;-72
2022/08/30 04:13:41;;;;;;;7.65;5.78;;;12.70;99.90;;;;;;5039166;28;20042;-72
2022/08/30 04:16:07;;;;;;;7.65;5.35;;;12.70;99.90;;;;;;5041404;28;20428;-72
2022/08/30 04:18:34;;;;;;;7.85;5.53;;;12.70;99.90;;;;;;5029649;28;20037;-72
2022/08/30 04:21:01;;;;;;;8.27;4.78;;;12.70;99.90;;;;;;5040530;28;20053;-72
2022/08/30 04:23:27;;;;;;;6.90;4.60;;;12.70;99.90;;;;;;5042003;28;20449;-72
2022/08/30 04:25:54;;;;;;;8.30;4.82;;;12.70;99.90;;;;;;5039121;28;20064;-72
2022/08/30 04:28:20;;;;;;;6.75;4.45;;;12.70;99.90;;;;;;5030075;28;20136;-72
2022/08/30 04:30:46;;;;;;;6.45;4.72;;;12.60;99.90;;;;;;5042169;28;20083;-72
2022/08/30 04:33:14;;;;;;;8.32;4.47;;;12.60;99.90;;;;;;5038550;28;20612;-71
2022/08/30 04:35:44;;;;;;;5.53;4.20;;;12.60;99.90;;;;;;5035262;28;20045;-72
2022/08/30 04:38:12;;;;;;;6.70;4.28;;;12.60;99.90;;;;;;5025780;28;20119;-71
2022/08/30 04:40:41;;;;;;;6.38;4.38;;;12.50;99.90;;;;;;5042536;28;20127;-72
2022/08/30 04:43:10;;;;;;;6.18;3.80;;;12.50;99.90;;;;;;5041182;28;20490;-71
2022/08/30 04:45:38;;;;;;;5.50;3.95;;;12.60;99.90;;;;;;5039124;28;20045;-72
2022/08/30 04:48:05;;;;;;;9.45;4.07;;;12.50;99.90;;;;;;5026577;28;20045;-72
2022/08/30 04:50:31;;;;;;;5.05;3.70;;;12.60;99.90;;;;;;5040491;28;20040;-72
2022/08/30 04:52:57;;;;;;;7.90;3.85;;;12.60;99.90;;;;;;5038056;28;20050;-72
2022/08/30 04:55:24;;;;;;;7.60;3.83;;;12.50;99.90;;;;;;5038477;28;20575;-72
2022/08/30 04:57:51;;;;;;;7.07;3.90;;;12.50;99.90;;;;;;5021182;28;20606;-71
2022/08/30 05:00:21;;;;;;;5.53;4.30;;;12.40;99.90;;;;;;5042740;28;20057;-72
2022/08/30 05:02:48;;;;;;;7.22;4.18;;;12.40;99.90;;;;;;5039253;28;20041;-71
2022/08/30 05:07:58;;;;;;;6.07;3.58;;;12.40;99.90;;;;;;5024282;28;20044;-71
2022/08/30 05:10:26;;;;;;;6.13;4.15;;;12.40;99.90;;;;;;5042850;28;20049;-72
2022/08/30 05:12:52;;;;;;;6.35;4.28;;;12.50;99.90;;;;;;5039744;28;20045;-72
2022/08/30 05:15:18;;;;;;;7.07;3.97;;;12.40;99.90;;;;;;5038930;28;20492;-72
2022/08/30 05:17:43;;;;;;;6.93;4.15;;;12.30;99.90;;;;;;5022466;28;20102;-71
2022/08/30 05:20:11;;;;;;;8.55;4.68;;;12.30;99.90;;;;;;5041820;28;20075;-72
2022/08/30 05:22:39;;;;;;;7.55;4.88;;;12.30;99.90;;;;;;5042558;28;20061;-72
2022/08/30 05:25:06;;;;;;;6.90;4.25;;;12.30;99.90;;;;;;5040655;28;20080;-72
2022/08/30 05:27:32;;;;;;;7.30;3.83;;;12.30;99.90;;;;;;5026289;28;20033;-72
2022/08/30 05:29:58;;;;;;;5.72;4.55;;;12.30;99.90;;;;;;5043642;28;20404;-72
2022/08/30 05:32:24;;;;;;;5.80;3.90;;;12.30;99.90;;;;;;5044085;28;20503;-72
2022/08/30 05:34:49;;;;;;;5.68;4.18;;;12.40;99.90;;;;;;5040876;28;20065;-72
2022/08/30 05:37:15;;;;;;;6.70;4.40;;;12.40;99.90;;;;;;5027365;28;20045;-72
2022/08/30 05:39:41;;;;;;;6.75;4.50;;;12.50;99.90;;;;;;5040371;28;20512;-72
2022/08/30 05:42:07;;;;;;;6.25;4.20;;;12.50;99.90;;;;;;5041943;28;20393;-72
2022/08/30 05:44:32;;;;;;;6.65;4.38;;;12.50;99.90;;;;;;5038872;28;20058;-72
2022/08/30 05:46:58;;;;;;;9.15;5.10;;;12.60;99.90;;;;;;5025208;28;20485;-72
2022/08/30 05:49:23;;;;;;;8.10;5.38;;;12.60;99.90;;;;;;5027526;28;20103;-72
2022/08/30 05:51:49;;;;;;;9.02;5.32;;;12.70;99.90;;;;;;5046943;28;20583;-72
2022/08/30 05:54:15;;;;;;;8.18;5.30;;;12.80;99.90;;;;;;5041046;28;20037;-73
2022/08/30 05:56:44;;;;;;;7.95;4.95;;;12.90;99.90;;;;;;5033277;28;20138;-72
2022/08/30 05:59:11;;;;;;;8.48;4.88;;;13.00;99.90;;;;;;5044983;28;20060;-72
2022/08/30 06:01:40;;;;;;;7.85;4.95;;;13.10;99.90;;;;;;5043966;28;20407;-73
2022/08/30 06:04:08;;;;;;;7.55;5.13;;;13.30;99.90;;;;;;5021624;28;20488;-72
2022/08/30 06:06:36;;;;;;;7.68;5.07;;;13.50;99.90;;;;;;5029354;28;20492;-73
2022/08/30 06:09:04;;;;;;;7.90;5.32;;;13.70;99.90;;;;;;5042390;28;20061;-72
2022/08/30 06:11:30;;;;;;;7.60;5.50;;;13.90;99.90;;;;;;5044302;28;20135;-72
2022/08/30 06:13:56;;;;;;;8.23;5.45;;;14.00;99.90;;;;;;5038910;28;20042;-73
2022/08/30 06:16:25;;;;;;;6.40;4.95;;;14.30;99.90;;;;;;5032713;28;20052;-75
2022/08/30 06:18:51;;;;;;;8.63;5.05;;;14.40;99.90;;;;;;5041337;28;20041;-73
2022/08/30 06:21:27;;;;;;;8.73;5.53;;;14.60;99.90;;;;;;5040043;28;20443;-74
2022/08/30 06:23:54;;;;;;;7.72;5.05;;;14.80;99.90;;;;;;5040769;28;20045;-74
2022/08/30 06:26:20;;;;;;;6.20;4.80;;;14.90;99.90;;;;;;5032636;28;20470;-74
2022/08/30 06:28:47;;;;;;;7.95;4.72;;;15.20;99.90;;;;;;5039357;28;20484;-74
2022/08/30 06:31:15;;;;;;;11.10;4.28;;;15.30;99.90;;;;;;5046777;28;20051;-74
2022/08/30 06:33:41;;;;;;;7.10;4.05;;;15.50;99.90;;;;;;5045615;28;20036;-74
2022/08/30 06:36:10;;;;;;;7.45;4.50;;;15.50;99.90;;;;;;5042501;28;20415;-75
2022/08/30 06:38:38;;;;;;;6.35;4.28;;;15.80;99.90;;;;;;5037089;28;20496;-74
2022/08/30 06:41:12;;;;;;;7.30;3.95;;;15.80;99.90;;;;;;5042797;28;20048;-75
2022/08/30 06:43:37;;;;;;;5.97;4.00;;;16.00;99.90;;;;;;5042386;28;20448;-74
2022/08/30 06:46:16;;;;;;;5.82;3.47;;;16.10;99.90;;;;;;5042814;28;20099;-74
2022/08/30 06:48:42;;;;;;;8.05;3.58;;;16.20;99.90;;;;;;5039576;28;20044;-74
2022/08/30 06:51:08;;;;;;;7.90;3.00;;;16.30;99.90;;;;;;5044075;28;20041;-74
2022/08/30 06:53:34;;;;;;;3.92;2.63;;;16.40;99.90;;;;;;5043924;28;20047;-74
2022/08/30 06:56:08;;;;;;;5.53;2.72;;;16.50;99.90;;;;;;5045291;28;20045;-74
2022/08/30 06:58:37;;;;;;;4.72;2.70;;;16.50;99.90;;;;;;5033506;28;20436;-74
2022/08/30 07:01:07;;;;;;;6.15;2.10;;;16.80;99.90;;;;;;5043085;28;20569;-74
2022/08/30 07:03:35;;;;;;;4.60;2.22;;;16.90;99.90;;;;;;5042485;28;20546;-73
2022/08/30 07:06:01;;;;;;;3.85;2.28;;;16.90;99.90;;;;;;5043123;28;20340;-73
2022/08/30 07:08:27;;;;;;;5.40;2.22;;;17.00;99.90;;;;;;5029442;28;20483;-73
2022/08/30 07:10:53;;;;;;;4.65;1.85;;;17.00;99.90;;;;;;5040876;28;20136;-73
2022/08/30 07:13:20;;;;;;;3.15;1.85;;;17.00;99.90;;;;;;5038680;28;20102;-74
2022/08/30 07:15:47;;;;;;;2.50;1.73;;;17.10;99.90;;;;;;5037159;28;20599;-73
2022/08/30 07:21:04;;;;;;;3.63;1.45;;;17.30;99.90;;;;;;5044344;28;20120;-73
2022/08/30 07:23:30;;;;;;;3.47;1.30;;;17.40;99.90;;;;;;5035068;28;20041;-73
2022/08/30 07:25:55;;;;;;;4.93;1.27;;;17.40;99.90;;;;;;5043533;28;20396;-73
2022/08/30 07:28:21;;;;;;;4.35;1.17;;;17.50;99.90;;;;;;5025944;28;20497;-73
2022/08/30 07:30:47;;;;;;;3.55;1.40;;;17.60;99.90;;;;;;5041666;28;20045;-73
2022/08/30 07:33:13;;;;;;;4.00;1.45;;;17.60;99.90;;;;;;5040980;28;20408;-73
2022/08/30 07:35:39;;;;;;;3.20;1.20;;;17.60;99.90;;;;;;5042489;28;20132;-73
2022/08/30 07:38:04;;;;;;;6.43;1.25;;;17.50;99.90;;;;;;5029476;28;20042;-73
2022/08/30 07:40:30;;;;;;;2.35;0.70;;;17.50;99.90;;;;;;5045199;28;20454;-73
2022/08/30 07:42:56;;;;;;;3.58;0.98;;;17.60;99.90;;;;;;5046542;28;20463;-73
2022/08/30 07:45:21;;;;;;;4.18;1.30;;;17.60;99.90;;;;;;5042336;28;20049;-73
2022/08/30 07:47:47;;;;;;;6.65;1.20;;;17.60;99.90;;;;;;5024311;28;20407;-73
2022/08/30 07:50:13;;;;;;;3.20;1.30;;;17.70;99.90;;;;;;5024195;28;20049;-73
2022/08/30 07:52:38;;;;;;;2.90;1.02;;;17.70;99.90;;;;;;5038053;28;20041;-73
2022/08/30 07:55:05;;;;;;;5.88;1.02;;;17.70;99.90;;;;;;5036582;28;20170;-73
2022/08/30 07:57:33;;;;;;;3.10;1.30;;;17.80;99.90;;;;;;5025552;28;20045;-73
2022/08/30 07:59:59;;;;;;;3.03;1.17;;;17.80;99.90;;;;;;5042416;28;20465;-73
2022/08/30 08:02:26;;;;;;;5.43;1.40;;;17.90;99.90;;;;;;5042934;28;20048;-72
2022/08/30 08:04:51;;;;;;;4.53;1.25;;;18.10;99.90;;;;;;5042991;28;20411;-72
2022/08/30 08:07:17;;;;;;;2.75;0.90;;;18.10;99.90;;;;;;5026641;28;20052;-73
2022/08/30 08:09:43;;;;;;;2.92;0.93;;;18.20;99.90;;;;;;5040555;28;20108;-73
2022/08/30 08:12:09;;;;;;;5.45;0.80;;;18.20;99.90;;;;;;5041022;28;20179;-72
2022/08/30 08:14:35;;;;;;;3.38;0.90;;;18.20;99.90;;;;;;5038932;28;20052;-72
2022/08/30 08:17:01;;;;;;;3.28;0.93;;;18.20;99.90;;;;;;5023793;28;20728;-73
2022/08/30 08:19:27;;;;;;;4.55;0.75;;;18.50;99.90;;;;;;5039968;28;20076;-73
2022/08/30 08:21:58;;;;;;;5.22;1.30;;;18.50;99.90;;;;;;5042617;28;20073;-72
2022/08/30 08:24:27;;;;;;;2.97;1.05;;;18.40;99.90;;;;;;5041106;28;20041;-72
2022/08/30 08:26:54;;;;;;;2.20;0.85;;;18.40;99.90;;;;;;5022818;28;20124;-73
2022/08/30 08:29:20;;;;;;;1.70;0.70;;;18.40;99.90;;;;;;5040042;28;20037;-73
2022/08/30 08:31:47;;;;;;;4.22;0.82;;;18.40;99.90;;;;;;5041430;28;20451;-73
2022/08/30 08:34:14;;;;;;;1.27;0.85;;;18.30;99.90;;;;;;5039219;28;20033;-72
2022/08/30 08:36:39;;;;;;;2.05;0.70;;;18.30;99.90;;;;;;5023310;28;20091;-73
2022/08/30 08:39:08;;;;;;;4.10;0.82;;;18.40;99.90;;;;;;5039173;28;20057;-72
2022/08/30 08:41:45;;;;;;;2.83;0.95;;;18.40;99.90;;;;;;5041973;28;20045;-72
2022/08/30 08:44:14;;;;;;;2.42;1.08;;;18.40;99.90;;;;;;5040104;28;20045;-73
2022/08/30 08:46:55;;;;;;;2.50;1.02;;;18.30;99.90;;;;;;5027290;28;20568;-73
2022/08/30 08:49:21;;;;;;;2.22;0.95;;;18.40;99.90;;;;;;5039620;28;20511;-72
2022/08/30 08:54:45;;;;;;;2.38;0.60;;;18.80;99.90;;;;;;5040513;28;20055;-72
2022/08/30 08:57:11;;;;;;;2.65;0.95;;;19.10;99.90;;;;;;5022839;28;20045;-73
2022/08/30 08:59:37;;;;;;;3.45;1.02;;;19.10;99.90;;;;;;5039504;28;20041;-72
2022/08/30 09:02:25;;;;;;;3.63;0.90;;;19.20;99.90;;;;;;5038303;28;20045;-71
2022/08/30 09:04:58;;;;;;;2.97;0.98;;;19.10;99.90;;;;;;5041733;28;20092;-73
2022/08/30 09:07:28;;;;;;;2.58;0.90;;;19.10;99.90;;;;;;5021923;28;20445;-73
2022/08/30 09:09:55;;;;;;;2.47;0.80;;;19.30;99.90;;;;;;5022981;28;20049;-73
2022/08/30 09:12:21;;;;;;;3.40;0.88;;;19.30;99.90;;;;;;5021438;28;20049;-74
2022/08/30 09:14:52;;;;;;;2.70;1.00;;;19.30;99.90;;;;;;5041529;28;20044;-71
2022/08/30 09:17:20;;;;;;;3.33;1.50;;;19.20;99.90;;;;;;5025087;28;20045;-72
2022/08/30 09:19:58;;;;;;;3.63;1.10;;;19.20;99.90;;;;;;5043468;28;20450;-72
2022/08/30 09:22:25;;;;;;;2.67;0.85;;;19.20;99.90;;;;;;5042220;28;20045;-73
2022/08/30 09:25:13;;;;;;;1.50;0.70;;;19.10;99.90;;;;;;5044355;28;20542;-71
2022/08/30 09:27:44;;;;;;;4.18;0.73;;;19.10;99.90;;;;;;5025043;28;20392;-71
2022/08/30 09:30:21;;;;;;;2.63;0.95;;;19.10;99.90;;;;;;5045737;28;20346;-72
2022/08/30 09:33:02;;;;;;;2.30;0.60;;;19.10;99.90;;;;;;5043744;28;20077;-72
2022/08/30 09:35:46;;;;;;;1.52;0.57;;;19.10;99.90;;;;;;5044004;28;20128;-72
2022/08/30 09:38:22;;;;;;;3.00;0.85;;;19.20;99.90;;;;;;5028684;28;20052;-72
2022/08/30 09:40:54;;;;;;;2.25;0.80;;;19.30;99.90;;;;;;5045088;28;20373;-72
2022/08/30 09:43:24;;;;;;;2.03;0.55;;;19.40;99.90;;;;;;5042685;28;20045;-72
2022/08/30 09:46:02;;;;;;;3.03;0.55;;;19.40;99.90;;;;;;5023835;28;20591;-72
2022/08/30 09:48:33;;;;;;;3.03;0.57;;;19.40;99.90;;;;;;5026616;28;20049;-72
2022/08/30 09:51:14;;;;;;;2.65;0.70;;;19.50;99.90;;;;;;5045463;28;20454;-72
2022/08/30 09:53:57;;;;;;;1.35;0.70;;;19.60;99.90;;;;;;5044205;28;20075;-73
2022/08/30 09:56:32;;;;;;;2.10;0.60;;;19.30;99.90;;;;;;5027717;28;20098;-74
2022/08/30 09:59:29;;;;;;;1.60;0.50;;;19.40;99.90;;;;;;5023064;28;20404;-72
2022/08/30 10:02:22;;;;;;;1.90;0.40;;;19.50;99.90;;;;;;5041964;28;20495;-71
2022/08/30 10:05:18;;;;;;;2.97;0.65;;;19.50;99.90;;;;;;5026211;28;20060;-72
2022/08/30 10:07:53;;;;;;;3.45;0.65;;;19.60;99.90;;;;;;5000296;28;20106;-71
2022/08/30 10:10:30;;;;;;;1.75;0.70;;;19.60;99.90;;;;;;5026687;28;20043;-72
2022/08/30 10:13:14;;;;;;;1.40;0.60;;;19.50;99.90;;;;;;5025229;28;20523;-72
2022/08/30 10:15:55;;;;;;;1.50;0.50;;;19.40;99.90;;;;;;5042694;28;20040;-72
2022/08/30 10:18:50;;;;;;;1.58;0.68;;;19.50;99.90;;;;;;5012030;28;20056;-71
2022/08/30 10:21:35;;;;;;;5.35;0.60;;;19.40;99.90;;;;;;5044565;28;20412;-71
2022/08/30 10:24:06;;;;;;;2.90;0.77;;;19.40;99.90;;;;;;5043320;28;20049;-71
2022/08/30 10:26:41;;;;;;;1.38;0.60;;;19.40;99.90;;;;;;5031700;28;20430;-72
2022/08/30 10:29:15;;;;;;;2.83;0.50;;;19.50;99.90;;;;;;5039821;28;20071;-71
2022/08/30 10:31:48;;;;;;;3.47;0.60;;;19.50;99.90;;;;;;5023888;28;20049;-71
2022/08/30 10:34:19;;;;;;;3.75;0.60;;;19.60;99.90;;;;;;5025904;28;20392;-72
2022/08/30 10:36:55;;;;;;;1.23;0.65;;;19.60;99.90;;;;;;5010595;28;20413;-72
2022/08/30 10:39:27;;;;;;;4.03;0.80;;;19.60;99.90;;;;;;5043337;28;20041;-71
2022/08/30 10:42:01;;;;;;;3.10;0.63;;;19.40;99.90;;;;;;5044645;28;20044;-71
2022/08/30 10:44:43;;;;;;;1.67;0.55;;;19.30;99.90;;;;;;5040900;28;20055;-71
2022/08/30 10:47:23;;;;;;;1.45;0.70;;;19.60;99.90;;;;;;5026414;28;20049;-70
2022/08/30 10:50:00;;;;;;;1.98;0.77;;;19.50;99.90;;;;;;5041299;28;20492;-72
2022/08/30 10:52:46;;;;;;;1.48;0.60;;;19.70;99.90;;;;;;5042701;28;20068;-72
2022/08/30 10:55:23;;;;;;;2.38;0.57;;;19.90;99.90;;;;;;5047213;28;20045;-71
2022/08/30 10:57:50;;;;;;;1.17;0.68;;;19.90;99.90;;;;;;5007340;28;20042;-71
2022/08/30 11:00:36;;;;;;;1.15;0.70;;;19.80;99.90;;;;;;5022652;28;20124;-72
2022/08/30 11:03:21;;;;;;;1.77;0.63;;;19.80;99.90;;;;;;5040558;28;20041;-72
2022/08/30 11:06:11;;;;;;;2.03;0.60;;;19.90;99.90;;;;;;5044277;28;20084;-72
2022/08/30 11:08:56;;;;;;;5.00;0.70;;;20.10;99.90;;;;;;5016612;28;20147;-72
2022/08/30 11:11:31;;;;;;;3.28;0.50;;;20.30;99.90;;;;;;5027420;28;20049;-72
2022/08/30 11:14:00;;;;;;;3.03;0.70;;;20.10;99.90;;;;;;5038561;28;20848;-72
2022/08/30 11:16:41;;;;;;;2.28;0.60;;;20.20;99.90;;;;;;5029216;28;20996;-72
2022/08/30 11:19:26;;;;;;;2.75;0.73;;;20.60;99.90;;;;;;5021543;28;20061;-72
2022/08/30 11:22:21;;;;;;;3.55;0.65;;;20.70;99.90;;;;;;5041567;28;20053;-72
2022/08/30 11:25:15;;;;;;;2.60;0.60;;;20.70;99.90;;;;;;5023668;28;20068;-72
2022/08/30 11:27:55;;;;;;;1.67;0.50;;;20.40;99.90;;;;;;5004269;28;20049;-71
2022/08/30 11:30:24;;;;;;;2.03;0.40;;;20.40;99.90;;;;;;5043073;28;20599;-72
2022/08/30 11:33:00;;;;;;;1.88;0.60;;;20.50;99.90;;;;;;5043047;28;20308;-72
2022/08/30 11:35:46;;;;;;;1.95;0.50;;;20.70;99.90;;;;;;5044890;28;20135;-72
2022/08/30 11:38:18;;;;;;;0.90;0.30;;;20.90;99.90;;;;;;5008954;28;20064;-71
2022/08/30 11:40:48;;;;;;;1.02;0.63;;;20.80;99.90;;;;;;5024460;28;20053;-72
2022/08/30 11:43:33;;;;;;;1.67;0.70;;;20.90;99.90;;;;;;5041089;28;20080;-72
2022/08/30 11:46:35;;;;;;;3.50;0.75;;;21.00;99.90;;;;;;5044128;28;20045;-72
2022/08/30 11:49:14;;;;;;;2.05;0.73;;;20.90;99.90;;;;;;5003898;28;20138;-72
2022/08/30 11:52:08;;;;;;;2.40;0.70;;;20.90;99.90;;;;;;5046722;28;20129;-72
2022/08/30 11:54:46;;;;;;;1.55;0.50;;;21.10;99.90;;;;;;5039965;28;20132;-72
2022/08/30 11:57:20;;;;;;;2.78;0.60;;;20.80;99.90;;;;;;5007475;28;20044;-71
2022/08/30 12:00:08;;;;;;;2.88;0.75;;;20.70;99.90;;;;;;5022700;28;20084;-71
2022/08/30 12:03:07;;;;;;;6.10;0.85;;;20.90;99.90;;;;;;5021089;28;20037;-71
2022/08/30 12:05:37;;;;;;;3.78;0.75;;;20.70;99.90;;;;;;5041678;28;20057;-71
2022/08/30 12:08:06;;;;;;;2.58;0.55;;;20.70;99.90;;;;;;4991192;28;20562;-72
2022/08/30 12:10:42;;;;;;;1.15;0.45;;;20.80;99.90;;;;;;5040282;28;20053;-71
2022/08/30 12:13:09;;;;;;;3.40;0.60;;;20.80;99.90;;;;;;5023087;28;20526;-72
2022/08/30 12:16:21;;;;;;;3.90;0.50;;;21.00;99.90;;;;;;5041702;28;20053;-72
2022/08/30 12:19:03;;;;;;;2.42;0.75;;;20.90;99.90;;;;;;5025628;28;20041;-72
2022/08/30 12:21:34;;;;;;;4.65;0.80;;;21.20;99.90;;;;;;5029598;28;20053;-70
2022/08/30 12:24:17;;;;;;;2.83;0.60;;;21.10;99.90;;;;;;5023304;28;20160;-71
2022/08/30 12:26:45;;;;;;;4.13;0.73;;;21.10;99.90;;;;;;5007916;28;20037;-74
2022/08/30 12:29:16;;;;;;;3.17;0.80;;;21.10;99.90;;;;;;5023724;28;20420;-71
2022/08/30 12:31:52;;;;;;;2.67;0.95;;;21.00;99.90;;;;;;5041639;28;20130;-71
2022/08/30 12:34:23;;;;;;;1.23;0.60;;;20.90;99.90;;;;;;5041614;28;20079;-71
2022/08/30 12:36:57;;;;;;;3.17;0.60;;;21.00;99.90;;;;;;5009388;28;20049;-71
2022/08/30 12:39:35;;;;;;;2.58;0.63;;;21.10;99.90;;;;;;5041954;28;20492;-72
2022/08/30 12:42:16;;;;;;;2.53;0.57;;;21.10;99.90;;;;;;5021439;28;20045;-72
2022/08/30 12:44:42;;;;;;;3.88;0.70;;;21.00;99.90;;;;;;4998982;28;20138;-73
2022/08/30 12:47:11;;;;;;;0.85;0.40;;;20.90;99.90;;;;;;4972694;28;20430;-70
2022/08/30 12:49:39;;;;;;;3.03;0.90;;;21.10;99.90;;;;;;5001201;28;20054;-72
2022/08/30 12:52:24;;;;;;;2.05;0.63;;;21.10;99.90;;;;;;4998675;28;20508;-71
2022/08/30 12:54:52;;;;;;;2.85;1.00;;;21.10;99.90;;;;;;5001888;28;20857;-71
2022/08/30 12:57:42;;;;;;;1.23;0.65;;;21.10;99.90;;;;;;4984478;28;20100;-71
2022/08/30 13:00:28;;;;;;;1.25;0.65;;;20.90;99.90;;;;;;5004343;28;20288;-71
2022/08/30 13:02:57;;;;;;;3.03;0.90;;;20.80;99.90;;;;;;5003259;28;20041;-72
2022/08/30 13:05:33;;;;;;;1.65;0.60;;;20.80;99.90;;;;;;5004902;28;20175;-71
2022/08/30 13:08:20;;;;;;;4.18;0.70;;;21.00;99.90;;;;;;4983558;28;20046;-72
2022/08/30 13:11:07;;;;;;;3.00;0.68;;;20.90;99.90;;;;;;5007079;28;20092;-72